createdAt,value
2022-10-17T10:51:29.850Z,3.55
2022-10-17T10:54:04.644Z,3.33
2022-10-17T10:56:38.837Z,3.67
2022-10-17T10:59:42.768Z,3.30
2022-10-17T11:02:24.572Z,3.13
2022-10-17T11:05:06.745Z,2.60
2022-10-17T11:07:40.698Z,2.67
2022-10-17T11:10:28.278Z,2.70
2022-10-17T11:13:11.734Z,2.90
2022-10-17T11:15:47.547Z,2.92
2022-10-17T11:18:26.862Z,2.92
2022-10-17T11:20:59.766Z,2.63
2022-10-17T11:23:43.112Z,2.83
2022-10-17T11:26:17.621Z,2.63
2022-10-17T11:28:44.388Z,3.70
2022-10-17T11:31:14.883Z,2.53
2022-10-17T11:33:46.856Z,2.67
2022-10-17T11:36:16.822Z,2.72
2022-10-17T11:38:52.793Z,3.15
2022-10-17T11:41:29.909Z,2.63
2022-10-17T11:44:24.324Z,2.88
2022-10-17T11:46:57.398Z,2.92
2022-10-17T11:49:42.290Z,2.90
2022-10-17T11:52:44.427Z,2.85
2022-10-17T11:55:19.785Z,2.97
2022-10-17T11:57:52.341Z,3.00
2022-10-17T12:00:28.119Z,2.70
2022-10-17T12:03:16.179Z,2.78
2022-10-17T12:05:50.798Z,2.78
2022-10-17T12:08:26.922Z,3.17
2022-10-17T12:11:20.133Z,2.95
2022-10-17T12:13:49.106Z,2.70
2022-10-17T12:16:18.690Z,2.97
2022-10-17T12:18:51.728Z,3.45
2022-10-17T12:21:18.631Z,2.65
2022-10-17T12:23:53.760Z,2.78
2022-10-17T12:26:28.818Z,2.80
2022-10-17T12:28:56.694Z,2.97
2022-10-17T12:31:28.534Z,2.70
2022-10-17T12:34:04.827Z,2.28
2022-10-17T12:36:31.418Z,3.88
2022-10-17T12:39:04.096Z,2.42
2022-10-17T12:41:39.671Z,3.17
2022-10-17T12:44:28.741Z,2.78
2022-10-17T12:47:05.231Z,2.15
2022-10-17T12:49:45.673Z,2.90
2022-10-17T12:52:17.995Z,2.35
2022-10-17T12:55:00.151Z,2.55
2022-10-17T12:57:49.096Z,2.15
2022-10-17T13:00:49.796Z,2.65
2022-10-17T13:03:30.703Z,3.35
2022-10-17T13:06:06.918Z,2.58
2022-10-17T13:08:39.052Z,2.15
2022-10-17T13:11:08.037Z,2.50
2022-10-17T13:13:50.427Z,2.90
2022-10-17T13:16:36.097Z,2.72
2022-10-17T13:19:13.131Z,3.22
2022-10-17T13:21:40.056Z,2.50
2022-10-17T13:24:30.340Z,3.20
2022-10-17T13:26:57.097Z,2.47
2022-10-17T13:29:25.815Z,1.85
2022-10-17T13:31:55.783Z,2.13
2022-10-17T13:34:26.184Z,1.98
2022-10-17T13:36:55.590Z,1.88
2022-10-17T13:39:38.324Z,2.50
2022-10-17T13:42:21.453Z,2.97
2022-10-17T13:44:48.560Z,2.45
2022-10-17T13:47:33.971Z,2.28
2022-10-17T13:50:01.134Z,2.03
2022-10-17T13:52:30.363Z,3.00
2022-10-17T13:55:17.431Z,3.28
2022-10-17T13:57:44.432Z,2.58
2022-10-17T14:00:19.714Z,2.42
2022-10-17T14:02:46.501Z,3.28
2022-10-17T14:05:18.552Z,2.85
2022-10-17T14:08:13.378Z,2.60
2022-10-17T14:10:43.348Z,2.75
2022-10-17T14:13:23.066Z,2.92
2022-10-17T14:15:50.770Z,2.40
2022-10-17T14:18:33.299Z,2.53
2022-10-17T14:23:50.728Z,2.40
2022-10-17T14:28:47.942Z,2.25
2022-10-17T14:31:29.951Z,2.70
2022-10-17T14:33:57.407Z,2.50
2022-10-17T14:36:37.432Z,2.45
2022-10-17T14:39:11.898Z,2.28
2022-10-17T14:41:44.801Z,2.67
2022-10-17T14:44:32.748Z,2.70
2022-10-17T14:47:30.140Z,2.58
2022-10-17T14:50:03.545Z,3.55
2022-10-17T14:52:32.835Z,2.38
2022-10-17T14:55:12.612Z,2.28
2022-10-17T14:57:45.579Z,3.20
2022-10-17T15:00:17.383Z,2.60
2022-10-17T15:02:45.354Z,2.55
2022-10-17T15:05:13.600Z,2.63
2022-10-17T15:07:41.090Z,2.72
2022-10-17T15:10:32.114Z,2.07
2022-10-17T15:13:26.218Z,4.15
2022-10-17T15:15:51.421Z,2.75
2022-10-17T15:18:18.124Z,3.92
2022-10-17T15:20:44.848Z,4.97
2022-10-17T15:23:11.492Z,3.85
2022-10-17T15:25:39.119Z,2.80
2022-10-17T15:28:05.825Z,3.55
2022-10-17T15:30:36.531Z,3.00
2022-10-17T15:33:03.496Z,3.10
2022-10-17T15:35:30.632Z,3.35
2022-10-17T15:37:57.308Z,3.75
2022-10-17T15:40:30.557Z,3.92
2022-10-17T15:42:57.749Z,4.05
2022-10-17T15:45:24.824Z,4.22
2022-10-17T15:48:04.215Z,7.55
2022-10-17T15:50:30.836Z,9.80
2022-10-17T15:52:57.492Z,26.50
2022-10-17T15:55:24.168Z,42.95
2022-10-17T15:57:51.042Z,6.63
2022-10-17T16:00:23.468Z,30.27
2022-10-17T16:02:50.784Z,49.13
2022-10-17T16:05:23.482Z,21.50
2022-10-17T16:07:50.567Z,18.02
2022-10-17T16:10:17.799Z,16.42
2022-10-17T16:12:45.018Z,21.73
2022-10-17T16:15:18.170Z,21.95
2022-10-17T16:17:44.972Z,10.75
2022-10-17T16:20:13.037Z,5.25
2022-10-17T16:22:42.162Z,6.60
2022-10-17T16:25:21.545Z,8.13
2022-10-17T16:27:51.509Z,6.43
2022-10-17T16:30:18.745Z,8.05
2022-10-17T16:32:46.280Z,9.45
2022-10-17T16:35:22.521Z,5.57
2022-10-17T16:37:49.328Z,7.45
2022-10-17T16:40:16.770Z,6.38
2022-10-17T16:42:44.019Z,7.38
2022-10-17T16:45:17.501Z,7.18
2022-10-17T16:47:44.336Z,8.02
2022-10-17T16:50:11.089Z,7.40
2022-10-17T16:52:37.699Z,10.05
2022-10-17T16:55:04.950Z,10.90
2022-10-17T16:57:31.644Z,9.48
2022-10-17T16:59:58.476Z,8.43
2022-10-17T17:02:25.193Z,8.55
2022-10-17T17:04:51.833Z,7.72
2022-10-17T17:07:19.835Z,8.60
2022-10-17T17:09:46.563Z,7.93
2022-10-17T17:12:13.254Z,6.22
2022-10-17T17:14:39.900Z,6.65
2022-10-17T17:17:09.583Z,5.18
2022-10-17T17:19:42.083Z,5.70
2022-10-17T17:22:08.732Z,6.18
2022-10-17T17:24:35.402Z,5.47
2022-10-17T17:27:02.026Z,4.25
2022-10-17T17:29:28.894Z,5.35
2022-10-17T17:31:55.510Z,4.35
2022-10-17T17:34:22.226Z,4.07
2022-10-17T17:36:49.040Z,5.95
2022-10-17T17:39:16.116Z,5.75
2022-10-17T17:41:44.472Z,6.47
2022-10-17T17:44:16.410Z,11.27
2022-10-17T17:46:44.194Z,15.20
2022-10-17T17:49:11.686Z,8.48
2022-10-17T17:51:39.030Z,6.90
2022-10-17T17:54:05.754Z,4.40
2022-10-17T17:56:32.979Z,3.88
2022-10-17T17:59:02.250Z,3.88
2022-10-17T18:01:35.114Z,4.05
2022-10-17T18:04:01.739Z,4.05
2022-10-17T18:06:29.025Z,4.35
2022-10-17T18:08:58.110Z,4.07
2022-10-17T18:11:27.252Z,4.20
2022-10-17T18:14:06.349Z,4.63
2022-10-17T18:16:35.105Z,3.85
2022-10-17T18:19:07.185Z,4.13
2022-10-17T18:21:34.815Z,4.00
2022-10-17T18:24:02.179Z,4.13
2022-10-17T18:26:28.892Z,5.13
2022-10-17T18:28:55.649Z,6.30
2022-10-17T18:31:35.801Z,9.32
2022-10-17T18:34:03.482Z,15.25
2022-10-17T18:36:30.995Z,32.42
2022-10-17T18:38:59.781Z,39.72
2022-10-17T18:41:27.288Z,45.97
2022-10-17T18:43:55.141Z,38.97
2022-10-17T18:46:24.659Z,39.65
2022-10-17T18:48:51.600Z,37.92
2022-10-17T18:51:21.211Z,35.25
2022-10-17T18:53:50.169Z,22.83
2022-10-17T18:56:17.845Z,17.33
2022-10-17T18:58:44.744Z,15.20
2022-10-17T19:01:17.773Z,11.95
2022-10-17T19:03:47.112Z,10.18
2022-10-17T19:06:16.168Z,9.07
2022-10-17T19:08:43.915Z,8.63
2022-10-17T19:11:30.272Z,8.30
2022-10-17T19:13:58.164Z,10.88
2022-10-17T19:16:31.050Z,16.10
2022-10-17T19:19:03.253Z,16.17
2022-10-17T19:21:30.234Z,15.30
2022-10-17T19:24:04.034Z,17.45
2022-10-17T19:26:32.665Z,14.15
2022-10-17T19:29:00.650Z,13.00
2022-10-17T19:31:29.894Z,13.60
2022-10-17T19:33:56.673Z,14.77
2022-10-17T19:36:28.937Z,15.68
2022-10-17T19:38:59.107Z,16.23
2022-10-17T19:41:26.175Z,11.85
2022-10-17T19:43:52.815Z,13.25
2022-10-17T19:46:22.327Z,14.82
2022-10-17T19:48:49.935Z,12.93
2022-10-17T19:51:18.521Z,13.05
2022-10-17T19:53:46.525Z,13.25
2022-10-17T19:56:13.596Z,16.90
2022-10-17T19:58:46.657Z,22.98
2022-10-17T20:01:19.097Z,30.77
2022-10-17T20:03:46.722Z,26.23
2022-10-17T20:06:13.912Z,17.88
2022-10-17T20:08:41.191Z,13.25
2022-10-17T20:11:13.946Z,13.63
2022-10-17T20:13:41.153Z,12.95
2022-10-17T20:16:11.229Z,14.27
2022-10-17T20:18:38.420Z,14.88
2022-10-17T20:21:12.292Z,10.98
2022-10-17T20:23:40.227Z,11.07
2022-10-17T20:26:25.774Z,11.00
2022-10-17T20:28:53.417Z,9.25
2022-10-17T20:31:20.643Z,6.47
2022-10-17T20:33:47.341Z,8.50
2022-10-17T20:36:16.620Z,9.05
2022-10-17T20:38:43.260Z,9.50
2022-10-17T20:41:10.536Z,9.23
2022-10-17T20:43:38.339Z,9.90
2022-10-17T20:46:22.883Z,9.85
2022-10-17T20:48:54.565Z,10.95
2022-10-17T20:51:21.805Z,8.18
2022-10-17T20:53:49.031Z,8.90
2022-10-17T20:56:24.468Z,8.82
2022-10-17T20:58:56.641Z,9.35
2022-10-17T21:01:24.349Z,7.45
2022-10-17T21:03:51.447Z,7.85
2022-10-17T21:06:19.542Z,7.65
2022-10-17T21:08:47.564Z,8.18
2022-10-17T21:11:17.629Z,13.98
2022-10-17T21:13:45.740Z,14.20
2022-10-17T21:16:18.244Z,16.17
2022-10-17T21:18:45.915Z,15.25
2022-10-17T21:21:18.074Z,10.85
2022-10-17T21:23:47.431Z,9.75
2022-10-17T21:26:15.039Z,9.23
2022-10-17T21:28:43.242Z,9.70
2022-10-17T21:33:47.655Z,6.93
2022-10-17T21:36:16.777Z,7.05
2022-10-17T21:38:45.155Z,6.95
2022-10-17T21:41:14.200Z,6.15
2022-10-17T21:43:42.507Z,6.18
2022-10-17T21:48:40.605Z,6.35
2022-10-17T21:51:10.041Z,5.85
2022-10-17T21:53:37.401Z,5.43
2022-10-17T21:56:08.210Z,6.60
2022-10-17T21:58:34.947Z,6.38
2022-10-17T22:01:35.484Z,7.13
2022-10-17T22:04:04.180Z,6.78
2022-10-17T22:06:39.805Z,6.55
2022-10-17T22:09:12.217Z,5.50
2022-10-17T22:11:38.984Z,6.97
2022-10-17T22:14:14.943Z,8.68
2022-10-17T22:16:42.365Z,10.55
2022-10-17T22:19:11.504Z,5.68
2022-10-17T22:21:38.227Z,7.53
2022-10-17T22:24:08.136Z,7.28
2022-10-17T22:26:36.977Z,7.88
2022-10-17T22:29:05.407Z,7.20
2022-10-17T22:31:32.322Z,6.72
2022-10-17T22:33:59.346Z,6.35
2022-10-17T22:36:26.244Z,6.80
2022-10-17T22:38:53.132Z,8.02
2022-10-17T22:41:20.581Z,7.10
2022-10-17T22:43:47.286Z,6.88
2022-10-17T22:46:16.233Z,7.30
2022-10-17T22:48:43.628Z,7.43
2022-10-17T22:51:10.901Z,7.60
2022-10-17T22:53:37.894Z,8.53
2022-10-17T22:56:09.323Z,8.48
2022-10-17T22:58:36.310Z,7.13
2022-10-17T23:01:04.551Z,7.50
2022-10-17T23:05:59.209Z,7.25
2022-10-17T23:08:26.586Z,7.97
2022-10-17T23:10:53.614Z,9.57
2022-10-17T23:13:21.949Z,8.35
2022-10-17T23:15:56.525Z,7.88
2022-10-17T23:18:24.786Z,7.70
2022-10-17T23:20:52.089Z,7.07
2022-10-17T23:23:19.501Z,8.13
2022-10-17T23:25:46.877Z,7.25
2022-10-17T23:28:14.111Z,7.23
2022-10-17T23:30:41.112Z,7.40
2022-10-17T23:33:10.426Z,7.07
2022-10-17T23:35:37.083Z,7.00
2022-10-17T23:38:03.860Z,6.75
2022-10-17T23:40:30.542Z,7.20
2022-10-17T23:42:57.189Z,6.22
2022-10-17T23:45:23.930Z,6.20
2022-10-17T23:47:50.583Z,6.80
2022-10-17T23:50:17.291Z,7.57
2022-10-17T23:52:43.895Z,7.63
2022-10-17T23:55:10.763Z,8.85
2022-10-17T23:57:37.385Z,7.70
